AZU1383 SBJP-SBBR
Flight info
| Callsign | AZU1383 |
|---|---|
| Flight time | 2h 39m |
| Altitude | 38000 |
| Route | KUKES UZ59 VADOP |
| Aircraft | A20N/M-SDE2E3FGHIRWXY/LB1 |
Departure
| Time | 2026-05-04 18:14 |
|---|---|
| Airport | Presidente Castro Pinto International Airport (SBJP) |
Arrival
| Time | 2026-05-04 20:54 |
|---|---|
| Airport | Presidente Juscelino Kubitschek International Airport (SBBR) |
| Time | Latitude | Longitude | Altitude | Speed | Heading |
|---|---|---|---|---|---|
| 2026-05-04 17:20 | -7.14682 | -34.94842 | 221 ft | 0 kts | 88° |
| 2026-05-04 18:03 | -7.14683 | -34.94862 | 221 ft | 1 kts | 89° |
| 2026-05-04 18:03 | -7.14747 | -34.94845 | 221 ft | 13 kts | 212° |
| 2026-05-04 18:03 | -7.14750 | -34.94924 | 221 ft | 16 kts | 298° |
| 2026-05-04 18:03 | -7.14700 | -34.94993 | 221 ft | 0 kts | 270° |
| 2026-05-04 18:06 | -7.14701 | -34.94996 | 221 ft | 2 kts | 261° |
| 2026-05-04 18:06 | -7.14732 | -34.95021 | 222 ft | 11 kts | 215° |
| 2026-05-04 18:07 | -7.14754 | -34.95037 | 222 ft | 0 kts | 216° |
| 2026-05-04 18:09 | -7.14789 | -34.95125 | 223 ft | 14 kts | 294° |
| 2026-05-04 18:10 | -7.14705 | -34.95223 | 222 ft | 23 kts | 311° |
| 2026-05-04 18:10 | -7.14578 | -34.95340 | 222 ft | 28 kts | 315° |
| 2026-05-04 18:10 | -7.14423 | -34.95501 | 222 ft | 35 kts | 313° |
| 2026-05-04 18:10 | -7.14248 | -34.95667 | 224 ft | 35 kts | 310° |
| 2026-05-04 18:11 | -7.14077 | -34.95823 | 226 ft | 18 kts | 315° |
| 2026-05-04 18:11 | -7.14066 | -34.95827 | 226 ft | 0 kts | 350° |
| 2026-05-04 18:12 | -7.14059 | -34.95826 | 226 ft | 3 kts | 11° |
| 2026-05-04 18:12 | -7.14043 | -34.95823 | 226 ft | 4 kts | 5° |
| 2026-05-04 18:12 | -7.14026 | -34.95855 | 226 ft | 9 kts | 263° |
| 2026-05-04 18:12 | -7.14053 | -34.95853 | 226 ft | 7 kts | 125° |
| 2026-05-04 18:13 | -7.14070 | -34.95837 | 226 ft | 1 kts | 141° |
| 2026-05-04 18:13 | -7.14071 | -34.95836 | 226 ft | 0 kts | 135° |
| 2026-05-04 18:13 | -7.14074 | -34.95832 | 226 ft | 13 kts | 135° |
| 2026-05-04 18:14 | -7.14383 | -34.95525 | 222 ft | 109 kts | 135° |
| 2026-05-04 18:14 | -7.15107 | -34.94806 | 221 ft | 179 kts | 134° |
| 2026-05-04 18:14 | -7.15897 | -34.93985 | 1473 ft | 137 kts | 135° |
| 2026-05-04 18:15 | -7.17343 | -34.92496 | 2530 ft | 197 kts | 135° |
| 2026-05-04 18:15 | -7.19255 | -34.90568 | 4884 ft | 187 kts | 136° |
| 2026-05-04 18:15 | -7.20152 | -34.89671 | 5972 ft | 190 kts | 136° |
| 2026-05-04 18:16 | -7.21094 | -34.88735 | 6994 ft | 194 kts | 136° |
| 2026-05-04 18:16 | -7.22071 | -34.87768 | 7988 ft | 199 kts | 136° |
| 2026-05-04 18:16 | -7.23068 | -34.86786 | 8941 ft | 203 kts | 136° |
| 2026-05-04 18:17 | -7.25136 | -34.84766 | 10818 ft | 210 kts | 136° |
| 2026-05-04 18:17 | -7.26200 | -34.83734 | 11702 ft | 214 kts | 136° |
| 2026-05-04 18:17 | -7.28383 | -34.81630 | 13395 ft | 220 kts | 137° |
| 2026-05-04 18:18 | -7.29488 | -34.80571 | 14173 ft | 224 kts | 137° |
| 2026-05-04 18:18 | -7.30640 | -34.79472 | 14944 ft | 227 kts | 137° |
| 2026-05-04 18:18 | -7.31804 | -34.78369 | 15686 ft | 230 kts | 137° |
| 2026-05-04 18:18 | -7.32932 | -34.77304 | 16372 ft | 233 kts | 137° |
| 2026-05-04 18:19 | -7.35364 | -34.75023 | 17811 ft | 240 kts | 137° |
| 2026-05-04 18:19 | -7.36595 | -34.73874 | 18522 ft | 242 kts | 137° |
| 2026-05-04 18:19 | -7.37834 | -34.72714 | 19204 ft | 245 kts | 137° |
| 2026-05-04 18:20 | -7.39082 | -34.71540 | 19839 ft | 248 kts | 137° |
| 2026-05-04 18:20 | -7.40357 | -34.70336 | 20467 ft | 251 kts | 137° |
| 2026-05-04 18:20 | -7.41633 | -34.69126 | 21072 ft | 254 kts | 137° |
| 2026-05-04 18:20 | -7.42489 | -34.68310 | 21470 ft | 256 kts | 137° |
| 2026-05-04 18:21 | -7.43786 | -34.67071 | 22045 ft | 259 kts | 137° |
| 2026-05-04 18:21 | -7.45097 | -34.65813 | 22595 ft | 261 kts | 137° |
| 2026-05-04 18:21 | -7.46418 | -34.64539 | 23135 ft | 264 kts | 136° |
| 2026-05-04 18:21 | -7.47748 | -34.63252 | 23647 ft | 267 kts | 136° |
| 2026-05-04 18:22 | -7.49118 | -34.62000 | 24111 ft | 271 kts | 145° |
| 2026-05-04 18:22 | -7.50755 | -34.61110 | 24476 ft | 276 kts | 162° |
| 2026-05-04 18:22 | -7.52646 | -34.60702 | 24907 ft | 279 kts | 178° |
| 2026-05-04 18:22 | -7.54539 | -34.60793 | 25404 ft | 277 kts | 185° |
| 2026-05-04 18:23 | -7.56470 | -34.60846 | 25916 ft | 277 kts | 176° |
| 2026-05-04 18:23 | -7.58392 | -34.60572 | 26314 ft | 280 kts | 167° |
| 2026-05-04 18:23 | -7.60232 | -34.59979 | 26652 ft | 284 kts | 157° |
| 2026-05-04 18:23 | -7.62096 | -34.59279 | 26800 ft | 293 kts | 176° |
| 2026-05-04 18:24 | -7.64165 | -34.59592 | 26795 ft | 304 kts | 200° |
| 2026-05-04 18:24 | -7.66125 | -34.60332 | 27444 ft | 295 kts | 202° |
| 2026-05-04 18:24 | -7.68036 | -34.60885 | 27959 ft | 292 kts | 184° |
| 2026-05-04 18:24 | -7.70024 | -34.60988 | 28278 ft | 293 kts | 193° |
| 2026-05-04 18:25 | -7.71930 | -34.61755 | 28386 ft | 301 kts | 216° |
| 2026-05-04 18:25 | -7.73425 | -34.63250 | 28542 ft | 307 kts | 238° |
| 2026-05-04 18:25 | -7.74380 | -34.65169 | 28984 ft | 303 kts | 247° |
| 2026-05-04 18:25 | -7.75231 | -34.67058 | 29544 ft | 296 kts | 244° |
| 2026-05-04 18:26 | -7.76206 | -34.68888 | 29968 ft | 293 kts | 239° |
| 2026-05-04 18:26 | -7.77404 | -34.70577 | 30173 ft | 298 kts | 229° |
| 2026-05-04 18:26 | -7.78866 | -34.72087 | 30364 ft | 303 kts | 224° |
| 2026-05-04 18:26 | -7.80379 | -34.73560 | 30632 ft | 305 kts | 224° |
| 2026-05-04 18:27 | -7.81915 | -34.75055 | 30936 ft | 306 kts | 224° |
| 2026-05-04 18:27 | -7.83424 | -34.76526 | 31237 ft | 306 kts | 224° |
| 2026-05-04 18:27 | -7.84968 | -34.78033 | 31509 ft | 308 kts | 224° |
| 2026-05-04 18:27 | -7.86526 | -34.79556 | 31755 ft | 310 kts | 224° |
| 2026-05-04 18:28 | -7.88046 | -34.81043 | 31978 ft | 312 kts | 224° |
| 2026-05-04 18:28 | -7.89623 | -34.82589 | 32228 ft | 314 kts | 225° |
| 2026-05-04 18:28 | -7.91196 | -34.84133 | 32464 ft | 316 kts | 225° |
| 2026-05-04 18:28 | -7.92787 | -34.85714 | 32698 ft | 318 kts | 225° |
| 2026-05-04 18:29 | -7.94328 | -34.87274 | 32931 ft | 319 kts | 226° |
| 2026-05-04 18:29 | -7.95847 | -34.88859 | 33144 ft | 321 kts | 227° |
| 2026-05-04 18:29 | -7.97367 | -34.90520 | 33356 ft | 323 kts | 228° |
| 2026-05-04 18:29 | -7.98778 | -34.92133 | 33554 ft | 324 kts | 230° |
| 2026-05-04 18:30 | -8.01675 | -34.95682 | 33971 ft | 327 kts | 232° |
| 2026-05-04 18:30 | -8.02920 | -34.97317 | 34149 ft | 329 kts | 233° |
| 2026-05-04 18:30 | -8.04278 | -34.99180 | 34341 ft | 330 kts | 234° |
| 2026-05-04 18:31 | -8.05581 | -35.01054 | 34527 ft | 332 kts | 236° |
| 2026-05-04 18:31 | -8.06895 | -35.03035 | 34709 ft | 333 kts | 237° |
| 2026-05-04 18:31 | -8.08122 | -35.04974 | 34887 ft | 335 kts | 238° |
| 2026-05-04 18:31 | -8.09338 | -35.06992 | 35061 ft | 336 kts | 240° |
| 2026-05-04 18:32 | -8.10513 | -35.09041 | 35244 ft | 337 kts | 241° |
| 2026-05-04 18:32 | -8.11643 | -35.11112 | 35405 ft | 339 kts | 242° |
| 2026-05-04 18:32 | -8.12740 | -35.13230 | 35573 ft | 340 kts | 243° |
| 2026-05-04 18:32 | -8.13794 | -35.15375 | 35734 ft | 342 kts | 245° |
| 2026-05-04 18:33 | -8.14785 | -35.17504 | 35864 ft | 343 kts | 246° |
| 2026-05-04 18:33 | -8.15773 | -35.19751 | 36032 ft | 345 kts | 247° |
| 2026-05-04 18:33 | -8.16710 | -35.22013 | 36174 ft | 346 kts | 248° |
| 2026-05-04 18:33 | -8.17593 | -35.24279 | 36329 ft | 348 kts | 249° |
| 2026-05-04 18:34 | -8.18424 | -35.26548 | 36455 ft | 349 kts | 251° |
| 2026-05-04 18:34 | -8.19237 | -35.28894 | 36589 ft | 351 kts | 251° |
| 2026-05-04 18:34 | -8.20033 | -35.31226 | 36722 ft | 352 kts | 251° |
| 2026-05-04 18:34 | -8.20824 | -35.33560 | 36852 ft | 354 kts | 251° |
| 2026-05-04 18:35 | -8.21618 | -35.35893 | 36950 ft | 355 kts | 250° |
| 2026-05-04 18:35 | -8.22447 | -35.38269 | 37060 ft | 357 kts | 251° |
| 2026-05-04 18:35 | -8.23291 | -35.40606 | 37161 ft | 359 kts | 249° |
| 2026-05-04 18:35 | -8.24209 | -35.42940 | 37315 ft | 359 kts | 248° |
| 2026-05-04 18:36 | -8.25200 | -35.45270 | 37447 ft | 360 kts | 246° |
| 2026-05-04 18:36 | -8.26248 | -35.47562 | 37570 ft | 361 kts | 244° |
| 2026-05-04 18:36 | -8.27364 | -35.49839 | 37674 ft | 363 kts | 243° |
| 2026-05-04 18:37 | -8.29769 | -35.54286 | 37880 ft | 366 kts | 240° |
| 2026-05-04 18:37 | -8.32301 | -35.58719 | 37441 ft | 389 kts | 244° |
| 2026-05-04 18:37 | -8.33309 | -35.61328 | 37468 ft | 389 kts | 256° |
| 2026-05-04 18:38 | -8.33931 | -35.63919 | 38224 ft | 372 kts | 255° |
| 2026-05-04 18:38 | -8.34671 | -35.66415 | 38665 ft | 365 kts | 251° |
| 2026-05-04 18:38 | -8.35576 | -35.68764 | 38668 ft | 370 kts | 245° |
| 2026-05-04 18:38 | -8.36770 | -35.71124 | 38323 ft | 383 kts | 239° |
| 2026-05-04 18:39 | -8.38200 | -35.73391 | 38417 ft | 384 kts | 242° |
| 2026-05-04 18:39 | -8.39124 | -35.75990 | 38229 ft | 391 kts | 260° |
| 2026-05-04 18:39 | -8.39602 | -35.78693 | 38549 ft | 385 kts | 255° |
| 2026-05-04 18:39 | -8.40630 | -35.81196 | 38551 ft | 388 kts | 241° |
| 2026-05-04 18:40 | -8.42009 | -35.83481 | 38837 ft | 383 kts | 240° |
| 2026-05-04 18:40 | -8.42980 | -35.86004 | 38857 ft | 385 kts | 257° |
| 2026-05-04 18:40 | -8.43591 | -35.88685 | 38382 ft | 397 kts | 250° |
| 2026-05-04 18:40 | -8.44794 | -35.91202 | 38148 ft | 394 kts | 238° |
| 2026-05-04 18:41 | -8.45915 | -35.93626 | 38021 ft | 391 kts | 257° |
| 2026-05-04 18:41 | -8.46561 | -35.96294 | 38198 ft | 385 kts | 257° |
| 2026-05-04 18:41 | -8.47459 | -35.98832 | 37869 ft | 393 kts | 238° |
| 2026-05-04 18:41 | -8.48929 | -36.01311 | 36482 ft | 414 kts | 250° |
| 2026-05-04 18:42 | -8.49681 | -36.04034 | 36448 ft | 394 kts | 250° |
| 2026-05-04 18:42 | -8.50942 | -36.06467 | 36415 ft | 377 kts | 240° |
| 2026-05-04 18:42 | -8.51922 | -36.08873 | 36170 ft | 367 kts | 245° |
| 2026-05-04 18:42 | -8.52809 | -36.11248 | 36245 ft | 358 kts | 262° |
| 2026-05-04 18:43 | -8.53585 | -36.13608 | 36487 ft | 355 kts | 239° |
| 2026-05-04 18:43 | -8.55914 | -36.18017 | 36576 ft | 360 kts | 244° |
| 2026-05-04 18:44 | -8.57969 | -36.22652 | 36677 ft | 365 kts | 245° |
| 2026-05-04 18:44 | -8.58348 | -36.23450 | 36866 ft | 358 kts | 242° |
| 2026-05-04 18:44 | -8.59959 | -36.27078 | 37672 ft | 343 kts | 250° |
| 2026-05-04 18:44 | -8.60828 | -36.29378 | 37339 ft | 356 kts | 238° |
| 2026-05-04 18:45 | -8.62032 | -36.31648 | 36370 ft | 380 kts | 256° |
| 2026-05-04 18:45 | -8.62766 | -36.34187 | 36074 ft | 376 kts | 244° |
| 2026-05-04 18:45 | -8.64132 | -36.36411 | 36013 ft | 369 kts | 241° |
| 2026-05-04 18:45 | -8.65048 | -36.38791 | 35806 ft | 370 kts | 251° |
| 2026-05-04 18:46 | -8.66066 | -36.41172 | 36092 ft | 365 kts | 241° |
| 2026-05-04 18:46 | -8.67167 | -36.43435 | 36680 ft | 351 kts | 252° |
| 2026-05-04 18:46 | -8.67902 | -36.45689 | 37438 ft | 331 kts | 250° |
| 2026-05-04 18:47 | -8.69827 | -36.50040 | 37119 ft | 352 kts | 241° |
| 2026-05-04 18:47 | -8.70851 | -36.52324 | 36902 ft | 361 kts | 255° |
| 2026-05-04 18:47 | -8.71634 | -36.54702 | 37211 ft | 355 kts | 248° |
| 2026-05-04 18:47 | -8.72638 | -36.56972 | 37393 ft | 356 kts | 243° |
| 2026-05-04 18:48 | -8.73771 | -36.59145 | 37434 ft | 359 kts | 241° |
| 2026-05-04 18:48 | -8.74879 | -36.61451 | 37417 ft | 364 kts | 252° |
| 2026-05-04 18:48 | -8.75613 | -36.63877 | 37376 ft | 369 kts | 251° |
| 2026-05-04 18:48 | -8.76562 | -36.66336 | 37579 ft | 367 kts | 245° |
| 2026-05-04 18:49 | -8.77683 | -36.68646 | 37821 ft | 365 kts | 244° |
| 2026-05-04 18:49 | -8.78465 | -36.71085 | 37684 ft | 373 kts | 257° |
| 2026-05-04 18:49 | -8.79415 | -36.73554 | 37497 ft | 381 kts | 249° |
| 2026-05-04 18:49 | -8.80241 | -36.76078 | 37849 ft | 374 kts | 257° |
| 2026-05-04 18:50 | -8.81025 | -36.78567 | 37997 ft | 375 kts | 240° |
| 2026-05-04 18:50 | -8.81961 | -36.80036 | 37860 ft | 380 kts | 233° |
| 2026-05-04 18:50 | -8.83422 | -36.83309 | 37754 ft | 387 kts | 250° |
| 2026-05-04 18:50 | -8.84115 | -36.84960 | 37908 ft | 384 kts | 242° |
| 2026-05-04 18:51 | -8.85613 | -36.88198 | 38276 ft | 380 kts | 253° |
| 2026-05-04 18:51 | -8.86047 | -36.89941 | 37978 ft | 389 kts | 262° |
| 2026-05-04 18:51 | -8.86690 | -36.92612 | 37482 ft | 394 kts | 243° |
| 2026-05-04 18:51 | -8.88498 | -36.95761 | 37133 ft | 380 kts | 248° |
| 2026-05-04 18:52 | -8.89056 | -36.97422 | 37123 ft | 371 kts | 253° |
| 2026-05-04 18:52 | -8.89938 | -36.99830 | 37595 ft | 360 kts | 245° |
| 2026-05-04 18:52 | -8.91067 | -37.02073 | 37883 ft | 357 kts | 244° |
| 2026-05-04 18:52 | -8.91843 | -37.04459 | 37588 ft | 369 kts | 255° |
| 2026-05-04 18:53 | -8.92804 | -37.06928 | 37469 ft | 376 kts | 240° |
| 2026-05-04 18:53 | -8.94088 | -37.09178 | 37797 ft | 370 kts | 238° |
| 2026-05-04 18:53 | -8.95470 | -37.11326 | 38175 ft | 364 kts | 237° |
| 2026-05-04 18:53 | -8.96497 | -37.13721 | 37914 ft | 375 kts | 260° |
| 2026-05-04 18:54 | -8.97308 | -37.16227 | 37740 ft | 383 kts | 243° |
| 2026-05-04 18:54 | -8.98625 | -37.18494 | 37995 ft | 378 kts | 238° |
| 2026-05-04 18:54 | -8.99720 | -37.20955 | 38100 ft | 380 kts | 258° |
| 2026-05-04 18:54 | -9.00086 | -37.23597 | 38167 ft | 381 kts | 269° |
| 2026-05-04 18:55 | -9.00600 | -37.26214 | 37978 ft | 386 kts | 246° |
| 2026-05-04 18:55 | -9.04543 | -37.33297 | 38042 ft | 389 kts | 242° |
| 2026-05-04 18:56 | -9.06155 | -37.35511 | 38119 ft | 390 kts | 224° |
| 2026-05-04 18:56 | -9.07990 | -37.37501 | 38416 ft | 385 kts | 237° |
| 2026-05-04 18:56 | -9.09419 | -37.39748 | 38558 ft | 384 kts | 230° |
| 2026-05-04 18:56 | -9.10985 | -37.41952 | 38813 ft | 380 kts | 238° |
| 2026-05-04 18:57 | -9.12348 | -37.44289 | 37349 ft | 408 kts | 243° |
| 2026-05-04 18:57 | -9.13450 | -37.47062 | 35687 ft | 435 kts | 256° |
| 2026-05-04 18:57 | -9.13885 | -37.50131 | 34192 ft | 454 kts | 269° |
| 2026-05-04 18:57 | -9.13636 | -37.53394 | 32675 ft | 470 kts | 281° |
| 2026-05-04 18:58 | -9.13091 | -37.56675 | 31526 ft | 474 kts | 274° |
| 2026-05-04 18:58 | -9.13150 | -37.60002 | 30480 ft | 474 kts | 263° |
| 2026-05-04 18:58 | -9.13857 | -37.63269 | 29356 ft | 475 kts | 251° |
| 2026-05-04 18:58 | -9.15205 | -37.66308 | 28473 ft | 473 kts | 239° |
| 2026-05-04 18:59 | -9.17121 | -37.68966 | 27880 ft | 464 kts | 227° |
| 2026-05-04 18:59 | -9.19465 | -37.71084 | 27550 ft | 450 kts | 215° |
| 2026-05-04 18:59 | -9.22189 | -37.72617 | 27488 ft | 446 kts | 202° |
| 2026-05-04 18:59 | -9.25180 | -37.73556 | 27684 ft | 454 kts | 194° |
| 2026-05-04 19:00 | -9.28215 | -37.74265 | 28139 ft | 456 kts | 195° |
| 2026-05-04 19:00 | -9.31225 | -37.75389 | 28552 ft | 458 kts | 207° |
| 2026-05-04 19:00 | -9.33896 | -37.77098 | 28918 ft | 460 kts | 219° |
| 2026-05-04 19:00 | -9.36217 | -37.79398 | 29279 ft | 462 kts | 231° |
| 2026-05-04 19:01 | -9.38078 | -37.82081 | 29635 ft | 465 kts | 238° |
| 2026-05-04 19:01 | -9.39786 | -37.84894 | 29987 ft | 467 kts | 239° |
| 2026-05-04 19:01 | -9.41468 | -37.87673 | 30347 ft | 470 kts | 238° |
| 2026-05-04 19:01 | -9.43236 | -37.90513 | 30696 ft | 472 kts | 237° |
| 2026-05-04 19:02 | -9.45000 | -37.93278 | 31000 ft | 475 kts | 237° |
| 2026-05-04 19:02 | -9.46797 | -37.96058 | 31294 ft | 476 kts | 237° |
| 2026-05-04 19:02 | -9.48614 | -37.98853 | 31648 ft | 476 kts | 237° |
| 2026-05-04 19:02 | -9.50454 | -38.01677 | 32045 ft | 475 kts | 237° |
| 2026-05-04 19:03 | -9.52222 | -38.04392 | 32393 ft | 474 kts | 237° |
| 2026-05-04 19:03 | -9.54058 | -38.07213 | 32740 ft | 474 kts | 237° |
| 2026-05-04 19:03 | -9.55850 | -38.09968 | 33078 ft | 473 kts | 237° |
| 2026-05-04 19:03 | -9.57668 | -38.12764 | 33416 ft | 472 kts | 237° |
| 2026-05-04 19:04 | -9.59480 | -38.15552 | 33734 ft | 472 kts | 237° |
| 2026-05-04 19:04 | -9.61294 | -38.18343 | 34033 ft | 471 kts | 237° |
| 2026-05-04 19:04 | -9.63080 | -38.21091 | 34341 ft | 471 kts | 237° |
| 2026-05-04 19:04 | -9.64872 | -38.23849 | 34638 ft | 470 kts | 237° |
| 2026-05-04 19:05 | -9.66662 | -38.26605 | 34926 ft | 469 kts | 237° |
| 2026-05-04 19:05 | -9.68456 | -38.29368 | 35205 ft | 469 kts | 237° |
| 2026-05-04 19:05 | -9.70249 | -38.32128 | 35475 ft | 469 kts | 237° |
| 2026-05-04 19:05 | -9.71996 | -38.34820 | 35727 ft | 468 kts | 237° |
| 2026-05-04 19:06 | -9.73793 | -38.37589 | 35954 ft | 469 kts | 237° |
| 2026-05-04 19:06 | -9.75603 | -38.40378 | 36168 ft | 469 kts | 237° |
| 2026-05-04 19:06 | -9.77366 | -38.43101 | 36401 ft | 469 kts | 237° |
| 2026-05-04 19:06 | -9.79175 | -38.45898 | 36614 ft | 469 kts | 237° |
| 2026-05-04 19:07 | -9.80941 | -38.48630 | 36833 ft | 469 kts | 237° |
| 2026-05-04 19:07 | -9.82691 | -38.51341 | 37007 ft | 469 kts | 237° |
| 2026-05-04 19:07 | -9.84482 | -38.54121 | 37207 ft | 469 kts | 237° |
| 2026-05-04 19:07 | -9.86292 | -38.56930 | 37421 ft | 469 kts | 237° |
| 2026-05-04 19:08 | -9.88048 | -38.59657 | 37621 ft | 469 kts | 237° |
| 2026-05-04 19:08 | -9.89853 | -38.62459 | 37819 ft | 468 kts | 237° |
| 2026-05-04 19:08 | -9.91484 | -38.64992 | 37982 ft | 468 kts | 237° |
| 2026-05-04 19:08 | -9.93270 | -38.67767 | 38011 ft | 466 kts | 237° |
| 2026-05-04 19:09 | -9.96813 | -38.73276 | 38006 ft | 462 kts | 237° |
| 2026-05-04 19:09 | -10.00284 | -38.78675 | 38007 ft | 455 kts | 237° |
| 2026-05-04 19:10 | -10.03727 | -38.84033 | 38007 ft | 455 kts | 237° |
| 2026-05-04 19:10 | -10.07200 | -38.89441 | 38007 ft | 455 kts | 237° |
| 2026-05-04 19:11 | -10.10680 | -38.94861 | 38007 ft | 455 kts | 237° |
| 2026-05-04 19:11 | -10.14133 | -39.00244 | 38007 ft | 455 kts | 237° |
| 2026-05-04 19:12 | -10.19296 | -39.08296 | 38007 ft | 455 kts | 237° |
| 2026-05-04 19:13 | -10.22745 | -39.13677 | 38007 ft | 455 kts | 237° |
| 2026-05-04 19:13 | -10.26215 | -39.19094 | 38007 ft | 455 kts | 237° |
| 2026-05-04 19:14 | -10.29661 | -39.24473 | 38006 ft | 455 kts | 237° |
| 2026-05-04 19:14 | -10.33115 | -39.29871 | 37983 ft | 456 kts | 237° |
| 2026-05-04 19:15 | -10.36532 | -39.35284 | 37954 ft | 454 kts | 237° |
| 2026-05-04 19:15 | -10.39939 | -39.40694 | 37956 ft | 454 kts | 237° |
| 2026-05-04 19:16 | -10.43344 | -39.46097 | 37954 ft | 454 kts | 237° |
| 2026-05-04 19:16 | -10.46731 | -39.51470 | 37951 ft | 454 kts | 237° |
| 2026-05-04 19:17 | -10.50169 | -39.56923 | 37955 ft | 454 kts | 237° |
| 2026-05-04 19:17 | -10.53566 | -39.62308 | 37957 ft | 454 kts | 237° |
| 2026-05-04 19:18 | -10.56973 | -39.67709 | 37955 ft | 454 kts | 237° |
| 2026-05-04 19:18 | -10.60382 | -39.73111 | 37949 ft | 454 kts | 237° |
| 2026-05-04 19:19 | -10.63788 | -39.78507 | 37910 ft | 453 kts | 237° |
| 2026-05-04 19:19 | -10.67198 | -39.83909 | 37857 ft | 453 kts | 237° |
| 2026-05-04 19:20 | -10.70565 | -39.89240 | 37812 ft | 452 kts | 237° |
| 2026-05-04 19:20 | -10.73969 | -39.94628 | 37762 ft | 452 kts | 237° |
| 2026-05-04 19:21 | -10.77368 | -40.00007 | 37710 ft | 452 kts | 237° |
| 2026-05-04 19:21 | -10.80773 | -40.05395 | 37662 ft | 451 kts | 237° |
| 2026-05-04 19:22 | -10.84149 | -40.10738 | 37614 ft | 450 kts | 237° |
| 2026-05-04 19:22 | -10.87535 | -40.16098 | 37563 ft | 450 kts | 237° |
| 2026-05-04 19:23 | -10.90933 | -40.21473 | 37594 ft | 451 kts | 237° |
| 2026-05-04 19:23 | -10.94305 | -40.26807 | 37598 ft | 451 kts | 237° |
| 2026-05-04 19:24 | -10.97150 | -40.31306 | 37596 ft | 451 kts | 237° |
| 2026-05-04 19:24 | -11.00554 | -40.36688 | 37602 ft | 451 kts | 237° |
| 2026-05-04 19:25 | -11.03905 | -40.41986 | 37594 ft | 451 kts | 237° |
| 2026-05-04 19:25 | -11.07298 | -40.47349 | 37596 ft | 453 kts | 237° |
| 2026-05-04 19:26 | -11.10722 | -40.52761 | 37595 ft | 451 kts | 237° |
| 2026-05-04 19:26 | -11.14014 | -40.57962 | 37599 ft | 451 kts | 237° |
| 2026-05-04 19:27 | -11.17418 | -40.63342 | 37600 ft | 451 kts | 237° |
| 2026-05-04 19:27 | -11.20803 | -40.68688 | 37595 ft | 453 kts | 237° |
| 2026-05-04 19:28 | -11.24229 | -40.74100 | 37600 ft | 455 kts | 237° |
| 2026-05-04 19:28 | -11.27677 | -40.79545 | 37597 ft | 453 kts | 237° |
| 2026-05-04 19:29 | -11.31069 | -40.84902 | 37593 ft | 453 kts | 237° |
| 2026-05-04 19:29 | -11.34394 | -40.90151 | 37593 ft | 454 kts | 237° |
| 2026-05-04 19:30 | -11.37752 | -40.95453 | 37596 ft | 454 kts | 237° |
| 2026-05-04 19:30 | -11.41149 | -41.00815 | 37594 ft | 454 kts | 237° |
| 2026-05-04 19:31 | -11.44601 | -41.06263 | 37603 ft | 454 kts | 237° |
| 2026-05-04 19:31 | -11.48011 | -41.11644 | 37593 ft | 454 kts | 237° |
| 2026-05-04 19:32 | -11.51438 | -41.17052 | 37600 ft | 456 kts | 237° |
| 2026-05-04 19:32 | -11.54860 | -41.22453 | 37597 ft | 455 kts | 237° |
| 2026-05-04 19:33 | -11.58229 | -41.27769 | 37606 ft | 455 kts | 237° |
| 2026-05-04 19:33 | -11.61660 | -41.33183 | 37597 ft | 455 kts | 237° |
| 2026-05-04 19:34 | -11.65074 | -41.38568 | 37604 ft | 454 kts | 237° |
| 2026-05-04 19:34 | -11.68480 | -41.43943 | 37606 ft | 453 kts | 237° |
| 2026-05-04 19:35 | -11.71899 | -41.49335 | 37594 ft | 453 kts | 237° |
| 2026-05-04 19:35 | -11.75328 | -41.54741 | 37594 ft | 453 kts | 237° |
| 2026-05-04 19:36 | -11.78724 | -41.60144 | 37598 ft | 453 kts | 238° |
| 2026-05-04 19:36 | -11.81903 | -41.65710 | 37598 ft | 453 kts | 240° |
| 2026-05-04 19:37 | -11.85105 | -41.71292 | 37596 ft | 453 kts | 239° |
| 2026-05-04 19:37 | -11.88289 | -41.76720 | 37600 ft | 454 kts | 239° |
| 2026-05-04 19:38 | -11.91525 | -41.82234 | 37594 ft | 453 kts | 239° |
| 2026-05-04 19:38 | -11.94788 | -41.87794 | 37597 ft | 453 kts | 239° |
| 2026-05-04 19:39 | -11.98026 | -41.93312 | 37599 ft | 455 kts | 239° |
| 2026-05-04 19:39 | -12.01245 | -41.98798 | 37595 ft | 454 kts | 239° |
| 2026-05-04 19:40 | -12.04520 | -42.04381 | 37596 ft | 453 kts | 239° |
| 2026-05-04 19:40 | -12.07776 | -42.09932 | 37597 ft | 455 kts | 239° |
| 2026-05-04 19:41 | -12.11022 | -42.15466 | 37595 ft | 455 kts | 239° |
| 2026-05-04 19:41 | -12.14204 | -42.20891 | 37594 ft | 456 kts | 239° |
| 2026-05-04 19:42 | -12.17470 | -42.26460 | 37596 ft | 456 kts | 239° |
| 2026-05-04 19:42 | -12.20724 | -42.32011 | 37594 ft | 456 kts | 239° |
| 2026-05-04 19:43 | -12.24034 | -42.37559 | 37593 ft | 455 kts | 238° |
| 2026-05-04 19:43 | -12.27344 | -42.42989 | 37599 ft | 452 kts | 238° |
| 2026-05-04 19:44 | -12.30666 | -42.48440 | 37596 ft | 451 kts | 238° |
| 2026-05-04 19:44 | -12.33996 | -42.53905 | 37594 ft | 451 kts | 238° |
| 2026-05-04 19:45 | -12.37310 | -42.59343 | 37596 ft | 451 kts | 238° |
| 2026-05-04 19:45 | -12.40605 | -42.64749 | 37600 ft | 451 kts | 238° |
| 2026-05-04 19:46 | -12.43950 | -42.70239 | 37604 ft | 451 kts | 238° |
| 2026-05-04 19:46 | -12.47250 | -42.75656 | 37601 ft | 451 kts | 238° |
| 2026-05-04 19:47 | -12.50593 | -42.81144 | 37597 ft | 451 kts | 238° |
| 2026-05-04 19:47 | -12.53935 | -42.86631 | 37598 ft | 456 kts | 238° |
| 2026-05-04 19:48 | -12.57264 | -42.92098 | 37597 ft | 454 kts | 238° |
| 2026-05-04 19:48 | -12.60581 | -42.97544 | 37598 ft | 450 kts | 238° |
| 2026-05-04 19:49 | -12.63902 | -43.02999 | 37596 ft | 451 kts | 238° |
| 2026-05-04 19:49 | -12.67229 | -43.08463 | 37595 ft | 452 kts | 238° |
| 2026-05-04 19:50 | -12.70533 | -43.13892 | 37600 ft | 451 kts | 238° |
| 2026-05-04 19:50 | -12.73885 | -43.19400 | 37598 ft | 451 kts | 238° |
| 2026-05-04 19:51 | -12.77185 | -43.24824 | 37594 ft | 451 kts | 238° |
| 2026-05-04 19:51 | -12.80502 | -43.30277 | 37598 ft | 451 kts | 238° |
| 2026-05-04 19:52 | -12.83816 | -43.35725 | 37595 ft | 451 kts | 238° |
| 2026-05-04 19:52 | -12.87064 | -43.41067 | 37599 ft | 451 kts | 238° |
| 2026-05-04 19:53 | -12.90347 | -43.46466 | 37598 ft | 451 kts | 238° |
| 2026-05-04 19:53 | -12.93673 | -43.51938 | 37599 ft | 451 kts | 238° |
| 2026-05-04 19:54 | -12.96954 | -43.57337 | 37599 ft | 451 kts | 238° |
| 2026-05-04 19:54 | -13.00288 | -43.62823 | 37599 ft | 451 kts | 238° |
| 2026-05-04 19:55 | -13.03609 | -43.68291 | 37598 ft | 451 kts | 238° |
| 2026-05-04 19:55 | -13.06922 | -43.73747 | 37599 ft | 451 kts | 238° |
| 2026-05-04 19:56 | -13.10250 | -43.79227 | 37602 ft | 451 kts | 238° |
| 2026-05-04 19:56 | -13.13559 | -43.84679 | 37604 ft | 451 kts | 238° |
| 2026-05-04 19:57 | -13.16881 | -43.90151 | 37597 ft | 451 kts | 238° |
| 2026-05-04 19:57 | -13.19642 | -43.94760 | 37603 ft | 451 kts | 239° |
| 2026-05-04 19:58 | -13.22402 | -43.99491 | 37598 ft | 452 kts | 239° |
| 2026-05-04 19:58 | -13.24489 | -44.03070 | 37594 ft | 452 kts | 239° |
| 2026-05-04 19:59 | -13.27719 | -44.08611 | 37604 ft | 452 kts | 239° |
| 2026-05-04 19:59 | -13.30974 | -44.14198 | 37604 ft | 451 kts | 239° |
| 2026-05-04 20:00 | -13.34152 | -44.19654 | 37599 ft | 452 kts | 239° |
| 2026-05-04 20:00 | -13.37395 | -44.25222 | 37597 ft | 451 kts | 239° |
| 2026-05-04 20:01 | -13.40637 | -44.30791 | 37599 ft | 451 kts | 239° |
| 2026-05-04 20:01 | -13.43858 | -44.36327 | 37602 ft | 451 kts | 239° |
| 2026-05-04 20:02 | -13.47053 | -44.41820 | 37601 ft | 451 kts | 239° |
| 2026-05-04 20:02 | -13.50308 | -44.47418 | 37605 ft | 452 kts | 239° |
| 2026-05-04 20:03 | -13.53545 | -44.52986 | 37604 ft | 452 kts | 239° |
| 2026-05-04 20:03 | -13.56767 | -44.58531 | 37596 ft | 452 kts | 239° |
| 2026-05-04 20:04 | -13.60000 | -44.64098 | 37598 ft | 452 kts | 239° |
| 2026-05-04 20:04 | -13.63236 | -44.69670 | 37600 ft | 453 kts | 239° |
| 2026-05-04 20:05 | -13.66473 | -44.75244 | 37600 ft | 452 kts | 239° |
| 2026-05-04 20:05 | -13.69698 | -44.80802 | 37587 ft | 451 kts | 239° |
| 2026-05-04 20:05 | -13.71192 | -44.83377 | 37426 ft | 448 kts | 239° |
| 2026-05-04 20:06 | -13.72590 | -44.85787 | 37408 ft | 449 kts | 239° |
| 2026-05-04 20:06 | -13.75809 | -44.91337 | 37408 ft | 451 kts | 239° |
| 2026-05-04 20:07 | -13.79056 | -44.96939 | 37404 ft | 451 kts | 239° |
| 2026-05-04 20:07 | -13.82270 | -45.02484 | 37407 ft | 451 kts | 239° |
| 2026-05-04 20:08 | -13.85505 | -45.08070 | 37405 ft | 451 kts | 239° |
| 2026-05-04 20:08 | -13.88739 | -45.13656 | 37406 ft | 451 kts | 239° |
| 2026-05-04 20:09 | -13.91919 | -45.19150 | 37408 ft | 451 kts | 239° |
| 2026-05-04 20:09 | -13.95138 | -45.24715 | 37405 ft | 450 kts | 239° |
| 2026-05-04 20:10 | -13.98353 | -45.30275 | 37407 ft | 451 kts | 239° |
| 2026-05-04 20:10 | -14.01609 | -45.35909 | 37407 ft | 451 kts | 239° |
| 2026-05-04 20:11 | -14.04863 | -45.41543 | 37407 ft | 451 kts | 239° |
| 2026-05-04 20:11 | -14.08066 | -45.47090 | 37408 ft | 451 kts | 239° |
| 2026-05-04 20:12 | -14.10732 | -45.51709 | 37405 ft | 452 kts | 239° |
| 2026-05-04 20:12 | -14.14484 | -45.58214 | 37408 ft | 451 kts | 239° |
| 2026-05-04 20:13 | -14.17182 | -45.62893 | 37406 ft | 452 kts | 239° |
| 2026-05-04 20:13 | -14.20389 | -45.68460 | 37408 ft | 452 kts | 239° |
| 2026-05-04 20:14 | -14.23602 | -45.74038 | 37408 ft | 452 kts | 239° |
| 2026-05-04 20:14 | -14.26806 | -45.79602 | 37407 ft | 452 kts | 239° |
| 2026-05-04 20:15 | -14.29987 | -45.85131 | 37406 ft | 452 kts | 239° |
| 2026-05-04 20:15 | -14.32765 | -45.89960 | 37405 ft | 452 kts | 239° |
| 2026-05-04 20:16 | -14.36079 | -45.95521 | 37409 ft | 452 kts | 238° |
| 2026-05-04 20:16 | -14.39380 | -46.01042 | 37153 ft | 446 kts | 238° |
| 2026-05-04 20:17 | -14.42634 | -46.06489 | 37112 ft | 449 kts | 238° |
| 2026-05-04 20:17 | -14.45897 | -46.11954 | 37109 ft | 448 kts | 238° |
| 2026-05-04 20:18 | -14.49174 | -46.17446 | 37108 ft | 447 kts | 238° |
| 2026-05-04 20:18 | -14.50784 | -46.20144 | 36931 ft | 444 kts | 238° |
| 2026-05-04 20:18 | -14.52405 | -46.22860 | 36506 ft | 441 kts | 238° |
| 2026-05-04 20:18 | -14.54100 | -46.25501 | 36009 ft | 438 kts | 235° |
| 2026-05-04 20:19 | -14.55875 | -46.28071 | 35489 ft | 433 kts | 234° |
| 2026-05-04 20:19 | -14.57616 | -46.30581 | 34961 ft | 430 kts | 234° |
| 2026-05-04 20:19 | -14.59361 | -46.33096 | 34433 ft | 426 kts | 234° |
| 2026-05-04 20:19 | -14.61079 | -46.35572 | 33925 ft | 422 kts | 234° |
| 2026-05-04 20:20 | -14.62791 | -46.38040 | 33378 ft | 419 kts | 234° |
| 2026-05-04 20:20 | -14.64496 | -46.40430 | 32842 ft | 417 kts | 233° |
| 2026-05-04 20:20 | -14.66223 | -46.42831 | 32333 ft | 413 kts | 233° |
| 2026-05-04 20:20 | -14.67892 | -46.45153 | 31824 ft | 410 kts | 233° |
| 2026-05-04 20:21 | -14.69596 | -46.47522 | 31322 ft | 406 kts | 233° |
| 2026-05-04 20:21 | -14.71296 | -46.49887 | 30803 ft | 403 kts | 233° |
| 2026-05-04 20:21 | -14.74619 | -46.54513 | 29788 ft | 396 kts | 233° |
| 2026-05-04 20:22 | -14.76251 | -46.56785 | 29291 ft | 393 kts | 233° |
| 2026-05-04 20:22 | -14.77883 | -46.59058 | 28796 ft | 390 kts | 233° |
| 2026-05-04 20:22 | -14.79487 | -46.61291 | 28309 ft | 386 kts | 233° |
| 2026-05-04 20:22 | -14.81021 | -46.63428 | 27929 ft | 381 kts | 233° |
| 2026-05-04 20:23 | -14.82652 | -46.65700 | 27389 ft | 379 kts | 233° |
| 2026-05-04 20:23 | -14.84227 | -46.67896 | 26895 ft | 376 kts | 233° |
| 2026-05-04 20:23 | -14.85805 | -46.70095 | 26394 ft | 372 kts | 233° |
| 2026-05-04 20:23 | -14.87334 | -46.72226 | 25923 ft | 370 kts | 233° |
| 2026-05-04 20:24 | -14.88845 | -46.74333 | 25438 ft | 367 kts | 233° |
| 2026-05-04 20:24 | -14.90365 | -46.76452 | 24953 ft | 364 kts | 233° |
| 2026-05-04 20:24 | -14.91870 | -46.78552 | 24473 ft | 361 kts | 233° |
| 2026-05-04 20:24 | -14.93350 | -46.80617 | 23982 ft | 359 kts | 233° |
| 2026-05-04 20:25 | -14.94847 | -46.82705 | 23470 ft | 358 kts | 233° |
| 2026-05-04 20:25 | -14.96320 | -46.84761 | 23012 ft | 355 kts | 233° |
| 2026-05-04 20:25 | -14.97782 | -46.86802 | 22532 ft | 352 kts | 233° |
| 2026-05-04 20:25 | -14.99240 | -46.88838 | 22086 ft | 350 kts | 233° |
| 2026-05-04 20:26 | -15.00676 | -46.90843 | 21631 ft | 347 kts | 233° |
| 2026-05-04 20:26 | -15.02125 | -46.92866 | 21145 ft | 345 kts | 233° |
| 2026-05-04 20:26 | -15.03540 | -46.94842 | 20720 ft | 342 kts | 233° |
| 2026-05-04 20:26 | -15.04951 | -46.96814 | 20309 ft | 339 kts | 233° |
| 2026-05-04 20:27 | -15.06366 | -46.98751 | 19865 ft | 336 kts | 233° |
| 2026-05-04 20:27 | -15.07781 | -47.00658 | 19422 ft | 334 kts | 232° |
| 2026-05-04 20:27 | -15.09198 | -47.02568 | 18962 ft | 332 kts | 232° |
| 2026-05-04 20:27 | -15.10584 | -47.04436 | 18544 ft | 329 kts | 232° |
| 2026-05-04 20:28 | -15.11974 | -47.06311 | 18110 ft | 327 kts | 233° |
| 2026-05-04 20:28 | -15.13364 | -47.08185 | 17669 ft | 325 kts | 233° |
| 2026-05-04 20:28 | -15.14735 | -47.10034 | 17227 ft | 322 kts | 233° |
| 2026-05-04 20:28 | -15.16084 | -47.11854 | 16811 ft | 320 kts | 233° |
| 2026-05-04 20:29 | -15.17442 | -47.13686 | 16385 ft | 318 kts | 233° |
| 2026-05-04 20:29 | -15.18790 | -47.15505 | 15946 ft | 316 kts | 233° |
| 2026-05-04 20:29 | -15.20124 | -47.17306 | 15518 ft | 314 kts | 233° |
| 2026-05-04 20:29 | -15.21444 | -47.19087 | 15088 ft | 312 kts | 233° |
| 2026-05-04 20:30 | -15.22749 | -47.20850 | 14643 ft | 311 kts | 233° |
| 2026-05-04 20:30 | -15.24075 | -47.22641 | 14231 ft | 309 kts | 233° |
| 2026-05-04 20:30 | -15.25378 | -47.24400 | 13810 ft | 306 kts | 233° |
| 2026-05-04 20:30 | -15.26665 | -47.26140 | 13406 ft | 304 kts | 233° |
| 2026-05-04 20:31 | -15.27949 | -47.27874 | 12987 ft | 302 kts | 233° |
| 2026-05-04 20:31 | -15.29210 | -47.29579 | 12572 ft | 300 kts | 233° |
| 2026-05-04 20:31 | -15.30497 | -47.31318 | 12151 ft | 298 kts | 233° |
| 2026-05-04 20:31 | -15.31754 | -47.33018 | 11686 ft | 298 kts | 233° |
| 2026-05-04 20:32 | -15.33004 | -47.34708 | 11317 ft | 295 kts | 233° |
| 2026-05-04 20:32 | -15.34252 | -47.36396 | 10902 ft | 293 kts | 233° |
| 2026-05-04 20:32 | -15.35493 | -47.38074 | 10493 ft | 291 kts | 233° |
| 2026-05-04 20:32 | -15.36719 | -47.39733 | 10083 ft | 289 kts | 233° |
| 2026-05-04 20:33 | -15.37938 | -47.41383 | 9659 ft | 288 kts | 233° |
| 2026-05-04 20:33 | -15.39126 | -47.42991 | 9231 ft | 287 kts | 233° |
| 2026-05-04 20:33 | -15.40369 | -47.44673 | 8790 ft | 286 kts | 233° |
| 2026-05-04 20:33 | -15.41557 | -47.46281 | 8389 ft | 284 kts | 233° |
| 2026-05-04 20:34 | -15.42769 | -47.47923 | 7986 ft | 282 kts | 233° |
| 2026-05-04 20:34 | -15.43964 | -47.49541 | 7584 ft | 280 kts | 233° |
| 2026-05-04 20:34 | -15.45128 | -47.51118 | 7172 ft | 279 kts | 233° |
| 2026-05-04 20:34 | -15.46312 | -47.52721 | 6771 ft | 277 kts | 233° |
| 2026-05-04 20:35 | -15.47474 | -47.54296 | 6390 ft | 275 kts | 233° |
| 2026-05-04 20:35 | -15.48638 | -47.55873 | 5991 ft | 274 kts | 233° |
| 2026-05-04 20:35 | -15.49786 | -47.57430 | 5616 ft | 272 kts | 233° |
| 2026-05-04 20:35 | -15.50928 | -47.58977 | 5375 ft | 271 kts | 233° |
| 2026-05-04 20:36 | -15.52083 | -47.60543 | 5307 ft | 271 kts | 233° |
| 2026-05-04 20:36 | -15.53229 | -47.62097 | 5313 ft | 271 kts | 233° |
| 2026-05-04 20:36 | -15.54378 | -47.63655 | 5303 ft | 272 kts | 233° |
| 2026-05-04 20:36 | -15.55529 | -47.65218 | 5314 ft | 271 kts | 233° |
| 2026-05-04 20:37 | -15.56675 | -47.66773 | 5308 ft | 272 kts | 233° |
| 2026-05-04 20:37 | -15.57812 | -47.68315 | 5310 ft | 271 kts | 233° |
| 2026-05-04 20:37 | -15.58968 | -47.69885 | 5304 ft | 271 kts | 233° |
| 2026-05-04 20:37 | -15.60112 | -47.71439 | 5306 ft | 271 kts | 233° |
| 2026-05-04 20:38 | -15.61265 | -47.73004 | 5302 ft | 272 kts | 233° |
| 2026-05-04 20:38 | -15.62400 | -47.74546 | 5282 ft | 270 kts | 233° |
| 2026-05-04 20:38 | -15.63531 | -47.76083 | 5123 ft | 269 kts | 233° |
| 2026-05-04 20:38 | -15.64300 | -47.77129 | 5105 ft | 269 kts | 233° |
| 2026-05-04 20:39 | -15.65400 | -47.78625 | 5112 ft | 258 kts | 233° |
| 2026-05-04 20:39 | -15.66481 | -47.80094 | 5104 ft | 259 kts | 233° |
| 2026-05-04 20:39 | -15.67486 | -47.81460 | 5106 ft | 262 kts | 233° |
| 2026-05-04 20:39 | -15.68484 | -47.82818 | 5112 ft | 262 kts | 233° |
| 2026-05-04 20:40 | -15.69588 | -47.84319 | 5109 ft | 263 kts | 233° |
| 2026-05-04 20:40 | -15.70661 | -47.85779 | 5102 ft | 262 kts | 233° |
| 2026-05-04 20:40 | -15.71734 | -47.87239 | 5109 ft | 262 kts | 233° |
| 2026-05-04 20:40 | -15.72841 | -47.88745 | 5109 ft | 262 kts | 233° |
| 2026-05-04 20:41 | -15.73199 | -47.89233 | 5103 ft | 262 kts | 233° |
| 2026-05-04 20:41 | -15.73238 | -47.89286 | 5104 ft | 262 kts | 233° |
| 2026-05-04 20:41 | -15.73347 | -47.89434 | 5107 ft | 262 kts | 233° |
| 2026-05-04 20:41 | -15.73689 | -47.89900 | 5108 ft | 262 kts | 233° |
| 2026-05-04 20:42 | -15.74790 | -47.91398 | 5106 ft | 262 kts | 233° |
| 2026-05-04 20:42 | -15.75886 | -47.92890 | 5109 ft | 263 kts | 233° |
| 2026-05-04 20:42 | -15.76997 | -47.94404 | 5105 ft | 263 kts | 233° |
| 2026-05-04 20:42 | -15.78106 | -47.95914 | 5108 ft | 262 kts | 233° |
| 2026-05-04 20:43 | -15.79230 | -47.97401 | 5109 ft | 263 kts | 230° |
| 2026-05-04 20:43 | -15.80477 | -47.98802 | 5101 ft | 263 kts | 229° |
| 2026-05-04 20:43 | -15.81654 | -48.00260 | 5108 ft | 262 kts | 232° |
| 2026-05-04 20:43 | -15.82670 | -48.01632 | 5109 ft | 262 kts | 233° |
| 2026-05-04 20:44 | -15.83730 | -48.03077 | 5110 ft | 263 kts | 233° |
| 2026-05-04 20:44 | -15.84577 | -48.04232 | 5109 ft | 263 kts | 233° |
| 2026-05-04 20:44 | -15.85626 | -48.05664 | 5099 ft | 263 kts | 233° |
| 2026-05-04 20:44 | -15.86733 | -48.07174 | 5107 ft | 262 kts | 233° |
| 2026-05-04 20:45 | -15.87821 | -48.08729 | 5118 ft | 263 kts | 237° |
| 2026-05-04 20:45 | -15.88750 | -48.10383 | 5094 ft | 263 kts | 245° |
| 2026-05-04 20:45 | -15.89418 | -48.12143 | 5097 ft | 262 kts | 252° |
| 2026-05-04 20:45 | -15.89940 | -48.13925 | 5119 ft | 262 kts | 253° |
| 2026-05-04 20:46 | -15.90545 | -48.15620 | 5113 ft | 263 kts | 246° |
| 2026-05-04 20:46 | -15.91218 | -48.17176 | 5099 ft | 263 kts | 246° |
| 2026-05-04 20:46 | -15.91997 | -48.18980 | 5100 ft | 261 kts | 246° |
| 2026-05-04 20:46 | -15.92724 | -48.20698 | 5114 ft | 262 kts | 248° |
| 2026-05-04 20:47 | -15.93301 | -48.22498 | 5102 ft | 262 kts | 256° |
| 2026-05-04 20:47 | -15.93578 | -48.24364 | 5105 ft | 261 kts | 268° |
| 2026-05-04 20:47 | -15.93331 | -48.26240 | 5116 ft | 261 kts | 290° |
| 2026-05-04 20:47 | -15.92471 | -48.27847 | 5113 ft | 262 kts | 310° |
| 2026-05-04 20:48 | -15.91026 | -48.28944 | 5116 ft | 263 kts | 341° |
| 2026-05-04 20:48 | -15.89189 | -48.28981 | 5104 ft | 264 kts | 18° |
| 2026-05-04 20:48 | -15.87710 | -48.27934 | 5108 ft | 265 kts | 53° |
| 2026-05-04 20:48 | -15.87071 | -48.26173 | 5109 ft | 265 kts | 88° |
| 2026-05-04 20:49 | -15.87377 | -48.24288 | 5100 ft | 266 kts | 106° |
| 2026-05-04 20:49 | -15.87889 | -48.22421 | 5107 ft | 265 kts | 106° |
| 2026-05-04 20:49 | -15.88377 | -48.20563 | 5106 ft | 266 kts | 105° |
| 2026-05-04 20:49 | -15.88833 | -48.18703 | 5106 ft | 265 kts | 104° |
| 2026-05-04 20:50 | -15.89236 | -48.16831 | 5105 ft | 266 kts | 99° |
| 2026-05-04 20:50 | -15.89380 | -48.15026 | 5106 ft | 266 kts | 90° |
| 2026-05-04 20:50 | -15.89311 | -48.13167 | 5107 ft | 266 kts | 85° |
| 2026-05-04 20:50 | -15.89169 | -48.11261 | 5109 ft | 266 kts | 86° |
| 2026-05-04 20:51 | -15.89052 | -48.09373 | 5106 ft | 259 kts | 86° |
| 2026-05-04 20:51 | -15.88946 | -48.07733 | 5112 ft | 257 kts | 86° |
| 2026-05-04 20:51 | -15.88824 | -48.05838 | 5098 ft | 243 kts | 86° |
| 2026-05-04 20:51 | -15.88718 | -48.04168 | 5092 ft | 213 kts | 86° |
| 2026-05-04 20:52 | -15.88626 | -48.02746 | 5086 ft | 187 kts | 86° |
| 2026-05-04 20:52 | -15.88542 | -48.01436 | 4681 ft | 187 kts | 86° |
| 2026-05-04 20:52 | -15.88451 | -48.00004 | 4534 ft | 207 kts | 86° |
| 2026-05-04 20:52 | -15.88356 | -47.98508 | 5359 ft | 225 kts | 86° |
| 2026-05-04 20:53 | -15.88260 | -47.96933 | 4506 ft | 295 kts | 86° |
| 2026-05-04 20:53 | -15.88156 | -47.95354 | 3711 ft | 332 kts | 90° |
| 2026-05-04 20:53 | -15.88070 | -47.93596 | 3500 ft | 223 kts | 88° |
| 2026-05-04 20:53 | -15.87918 | -47.92269 | 3460 ft | 149 kts | 84° |
| 2026-05-04 20:54 | -15.87851 | -47.91713 | 3447 ft | 19 kts | 51° |
| 2026-05-04 20:54 | -15.87844 | -47.91708 | 3446 ft | 0 kts | 39° |
| 2026-05-04 20:59 | -15.87789 | -47.91661 | 3445 ft | 19 kts | 41° |
| 2026-05-04 20:59 | -15.87731 | -47.91572 | 3442 ft | 12 kts | 41° |
| 2026-05-04 21:00 | -15.87679 | -47.91551 | 3440 ft | 4 kts | 2° |
| 2026-05-04 21:00 | -15.87671 | -47.91552 | 3441 ft | 0 kts | 358° |
| 2026-05-04 21:00 | -15.87672 | -47.91552 | 3441 ft | 0 kts | 357° |
| 2026-05-04 21:00 | -15.87668 | -47.91553 | 3442 ft | 2 kts | 348° |
| 2026-05-04 21:01 | -15.87654 | -47.91565 | 3443 ft | 4 kts | 315° |
| 2026-05-04 21:01 | -15.87640 | -47.91591 | 3444 ft | 5 kts | 292° |
| 2026-05-04 21:01 | -15.87620 | -47.91628 | 3443 ft | 6 kts | 308° |
| 2026-05-04 21:01 | -15.87579 | -47.91653 | 3446 ft | 8 kts | 342° |
| 2026-05-04 21:02 | -15.87519 | -47.91655 | 3449 ft | 10 kts | 359° |
| 2026-05-04 21:02 | -15.87443 | -47.91658 | 3447 ft | 12 kts | 357° |
| 2026-05-04 21:02 | -15.87353 | -47.91665 | 3451 ft | 14 kts | 355° |
| 2026-05-04 21:02 | -15.87308 | -47.91677 | 3452 ft | 0 kts | 341° |
| 2026-05-04 21:05 | -15.87307 | -47.91677 | 3452 ft | 0 kts | 345° |
| 2026-05-04 21:06 | -15.87299 | -47.91678 | 3452 ft | 2 kts | 349° |
| 2026-05-04 21:06 | -15.87277 | -47.91677 | 3451 ft | 4 kts | 4° |
| 2026-05-04 21:06 | -15.87239 | -47.91674 | 3451 ft | 6 kts | 1° |
| 2026-05-04 21:06 | -15.87188 | -47.91674 | 3453 ft | 8 kts | 360° |
| 2026-05-04 21:07 | -15.87126 | -47.91679 | 3455 ft | 10 kts | 355° |
| 2026-05-04 21:07 | -15.87062 | -47.91698 | 3458 ft | 9 kts | 313° |
| 2026-05-04 21:07 | -15.87063 | -47.91761 | 3457 ft | 11 kts | 266° |
| 2026-05-04 21:07 | -15.87091 | -47.91810 | 3457 ft | 6 kts | 158° |
| 2026-05-04 21:08 | -15.87096 | -47.91808 | 3457 ft | 0 kts | 158° |
| 2026-05-04 21:09 | -15.87094 | -47.91808 | 3457 ft | 0 kts | 153° |
| 2026-05-04 21:09 | -15.87091 | -47.91809 | 3457 ft | 1 kts | 140° |
| 2026-05-04 21:09 | -15.87088 | -47.91811 | 3457 ft | 0 kts | 126° |
| 2026-05-04 21:10 | -15.87089 | -47.91807 | 3457 ft | 2 kts | 110° |
| 2026-05-04 21:10 | -15.87082 | -47.91773 | 3460 ft | 8 kts | 75° |
| 2026-05-04 21:10 | -15.87058 | -47.91708 | 3459 ft | 11 kts | 44° |
| 2026-05-04 21:10 | -15.86985 | -47.91690 | 3462 ft | 11 kts | 360° |
| 2026-05-04 21:11 | -15.86925 | -47.91694 | 3461 ft | 0 kts | 357° |
| 2026-05-04 21:12 | -15.86923 | -47.91694 | 3461 ft | 1 kts | 350° |
| 2026-05-04 21:12 | -15.86915 | -47.91700 | 3461 ft | 2 kts | 325° |
| 2026-05-04 21:12 | -15.86908 | -47.91716 | 3462 ft | 4 kts | 287° |
| 2026-05-04 21:12 | -15.86904 | -47.91755 | 3462 ft | 7 kts | 272° |
| 2026-05-04 21:13 | -15.86908 | -47.91821 | 3462 ft | 11 kts | 264° |
| 2026-05-04 21:13 | -15.86906 | -47.91913 | 3462 ft | 14 kts | 287° |
| 2026-05-04 21:13 | -15.86892 | -47.91949 | 3462 ft | 0 kts | 291° |
| 2026-05-04 21:15 | -15.86894 | -47.91952 | 3462 ft | 0 kts | 262° |
| 2026-05-04 21:15 | -15.86892 | -47.91964 | 3462 ft | 3 kts | 282° |
| 2026-05-04 21:15 | -15.86888 | -47.91997 | 3462 ft | 6 kts | 260° |
| 2026-05-04 21:16 | -15.86888 | -47.91998 | 3462 ft | 0 kts | 260° |
| 2026-05-04 21:17 | -15.86889 | -47.91997 | 3462 ft | 0 kts | 253° |
| 2026-05-04 21:17 | -15.86889 | -47.91995 | 3462 ft | 0 kts | 246° |
| 2026-05-04 21:17 | -15.86887 | -47.91992 | 3462 ft | 3 kts | 250° |
| 2026-05-04 21:18 | -15.86885 | -47.91987 | 3462 ft | 0 kts | 253° |
| 2026-05-04 21:19 | -15.86886 | -47.91990 | 3462 ft | 4 kts | 253° |
| 2026-05-04 21:19 | -15.86888 | -47.91995 | 3462 ft | 0 kts | 253° |
| 2026-05-04 21:21 | -15.86892 | -47.92011 | 3462 ft | 0 kts | 254° |
| 2026-05-04 21:29 | -15.86892 | -47.92007 | 3462 ft | 0 kts | 238° |
| 2026-05-04 21:29 | -15.86887 | -47.92001 | 3462 ft | 0 kts | 240° |
| 2026-05-04 23:26 | -15.86884 | -47.91995 | 3462 ft | 1 kts | 240° |
| 2026-05-04 23:26 | -15.86883 | -47.91992 | 3461 ft | 0 kts | 240° |
| 2026-05-04 23:26 | -15.86879 | -47.91986 | 3461 ft | 1 kts | 240° |
| 2026-05-04 23:26 | -15.86876 | -47.91981 | 3461 ft | 1 kts | 235° |
| 2026-05-04 23:27 | -15.86871 | -47.91973 | 3462 ft | 1 kts | 220° |
| 2026-05-04 23:27 | -15.86861 | -47.91966 | 3462 ft | 1 kts | 199° |
| 2026-05-04 23:27 | -15.86859 | -47.91965 | 3462 ft | 0 kts | 197° |
| 2026-05-04 23:38 | -15.86881 | -47.91970 | 3461 ft | 8 kts | 190° |
| 2026-05-04 23:38 | -15.86942 | -47.91932 | 3461 ft | 14 kts | 125° |
| 2026-05-04 23:38 | -15.86951 | -47.91816 | 3461 ft | 18 kts | 89° |
| 2026-05-04 23:39 | -15.86947 | -47.91747 | 3461 ft | 0 kts | 85° |
| 2026-05-04 23:41 | -15.86946 | -47.91743 | 3461 ft | 2 kts | 85° |
| 2026-05-04 23:41 | -15.86944 | -47.91716 | 3461 ft | 5 kts | 84° |
| 2026-05-04 23:41 | -15.86939 | -47.91665 | 3460 ft | 8 kts | 84° |
| 2026-05-04 23:42 | -15.86934 | -47.91617 | 3461 ft | 7 kts | 83° |
| 2026-05-04 23:42 | -15.86927 | -47.91556 | 3461 ft | 10 kts | 83° |
| 2026-05-04 23:42 | -15.86925 | -47.91540 | 3461 ft | 0 kts | 83° |